New Holstein, Wisconsin
Current Conditions -  °F | °C
As of 11:53 AM on Thursday 18 Dec 2014 (Local Time) from KSBM Reporting Station
Overcast Overcast  
Wind Chill: 19°   Ceiling: 2100
Heat Index: 28°   Visibility: 10mi
Dew Point: 21°   Wind: 9mph
Humidity: 75%   Direction: 330°NNW
Pressure: 30.24"   Gusts: NA
Location:  43.95°N, 88.09°W
Report Text: KSBM 181753Z AUTO 33008KT 10SM OVC021 M02/M06 A3024 RMK AO2 SLP251 T10221061 11022 21039 58010
Loading
Personal Weather Stations






























Interactive Weather Map New forecast layout! Learn more

10-Day Weather Forecast

Advertisements
Track Severe Weather on mobile